Terminal Aerodrome Forecast
Issued by NWS

Home | Current Version | Previous Version | Text Only | Print | Product List | Glossary On
Versions: 1 2 3 4 5 6 7 8 9 10 11 12 13 14 15 16 17 18 19 20 21 22 23 24 25
412
FTUS46 KSEW 111145
TAFBLI
TAF
KBLI 111145Z 1112/1212 16013G23KT P6SM -SHRA SCT015 OVC030
      TEMPO 1112/1116 BKN015 OVC030
     FM111800 15011KT P6SM -SHRA BKN030 OVC050
     FM120000 10005KT P6SM BKN035 BKN060 PROB30 1200/1206 -SHRA
     FM120600 01008KT P6SM OVC035 PROB30 1206/1209 -SHRASN
     FM120900 03013G23KT P6SM BKN035 PROB30 1209/1212 -SHSN=

USA.gov is the U.S. government's official web portal to all federal, state and local government web resources and services.